Arlington, Nebraska
Current Conditions -  °F | °C
As of 11:35 PM on Sunday 21 Dec 2014 (Local Time) from KFET Reporting Station
Haze Haze  
Wind Chill: 37°   Ceiling: 600
Heat Index: 43°   Visibility: 5mi
Dew Point: 42°   Wind: 10mph
Humidity: 96%   Direction: 150°SSE
Pressure: 29.61"   Gusts: 16mph
Location:  41.45°N, 96.35°W
Report Text: KFET 220535Z AUTO 15009G14KT 5SM BR OVC006 06/06 A2961 RMK AO2 T00620056
Loading
Personal Weather Stations






























Interactive Weather Map New forecast layout! Learn more

10-Day Weather Forecast

Advertisements
Track Severe Weather on mobile